Time;durP1;ratioP1;P1;durP2;ratioP2;P2;SDS_P1;SDS_P2;PMS_P1;PMS_P2;Temp;Humidity;BMP_temperature;BMP_pressure;BME280_temperature;BME280_humidity;BME280_pressure;Samples;Min_cycle;Max_cycle;Signal;HPM_P1;HPM_P2
2023/05/28 00:00:11;;;;;;;15.47;5.17;;;;;;;;;;10346266;28;20052;-79
2023/05/28 00:05:12;;;;;;;13.70;5.30;;;;;;;;;;10357222;28;20038;-79
2023/05/28 00:10:13;;;;;;;10.67;5.50;;;;;;;;;;10352012;28;20736;-79
2023/05/28 00:15:14;;;;;;;7.67;4.87;;;;;;;;;;10354581;28;20113;-83
2023/05/28 00:20:16;;;;;;;15.07;5.83;;;;;;;;;;10364436;28;20042;-79
2023/05/28 00:25:17;;;;;;;10.73;5.10;;;;;;;;;;10351436;28;20105;-79
2023/05/28 00:30:18;;;;;;;9.87;4.23;;;;;;;;;;10353260;28;20049;-80
2023/05/28 00:35:19;;;;;;;9.30;4.30;;;;;;;;;;10344126;28;20482;-80
2023/05/28 00:40:20;;;;;;;13.87;4.97;;;;;;;;;;10336061;28;20038;-79
2023/05/28 00:45:21;;;;;;;13.13;5.07;;;;;;;;;;10348104;28;20594;-82
2023/05/28 00:50:22;;;;;;;9.80;4.70;;;;;;;;;;10366216;28;20407;-81
2023/05/28 00:55:23;;;;;;;9.63;4.57;;;;;;;;;;10356213;28;20034;-81
2023/05/28 01:00:25;;;;;;;12.50;4.90;;;;;;;;;;10343770;28;20042;-79
2023/05/28 01:05:26;;;;;;;10.33;4.07;;;;;;;;;;10360476;28;20041;-79
2023/05/28 01:10:27;;;;;;;10.47;4.13;;;;;;;;;;10343125;28;20034;-83
2023/05/28 01:15:28;;;;;;;8.57;4.33;;;;;;;;;;10354182;28;20026;-80
2023/05/28 01:20:30;;;;;;;11.57;4.77;;;;;;;;;;10356607;28;20060;-82
2023/05/28 01:25:31;;;;;;;8.67;4.03;;;;;;;;;;10357617;28;20046;-79
2023/05/28 01:30:34;;;;;;;10.00;4.13;;;;;;;;;;10350702;28;20401;-80
2023/05/28 01:35:35;;;;;;;7.17;3.90;;;;;;;;;;10359999;28;20091;-80
2023/05/28 01:40:37;;;;;;;9.07;3.97;;;;;;;;;;10346420;28;20426;-80
2023/05/28 01:45:38;;;;;;;7.90;4.10;;;;;;;;;;10357916;28;20033;-80
2023/05/28 01:50:39;;;;;;;9.03;4.00;;;;;;;;;;10361224;28;20095;-79
2023/05/28 01:55:40;;;;;;;7.97;3.80;;;;;;;;;;10357064;28;20038;-79
2023/05/28 02:00:43;;;;;;;10.83;4.47;;;;;;;;;;10346332;28;20043;-79
2023/05/28 02:05:44;;;;;;;12.03;4.83;;;;;;;;;;10363368;28;20034;-82
2023/05/28 02:10:45;;;;;;;7.83;4.27;;;;;;;;;;10366742;28;20036;-80
2023/05/28 02:15:46;;;;;;;10.07;4.20;;;;;;;;;;10358969;28;20038;-79
2023/05/28 02:20:47;;;;;;;10.17;4.07;;;;;;;;;;10359161;28;20038;-80
2023/05/28 02:25:48;;;;;;;10.50;4.10;;;;;;;;;;10356471;28;20026;-80
2023/05/28 02:30:49;;;;;;;10.90;3.43;;;;;;;;;;10352744;28;20042;-80
2023/05/28 02:35:50;;;;;;;7.33;3.77;;;;;;;;;;10361150;28;20489;-80
2023/05/28 02:40:51;;;;;;;7.03;3.40;;;;;;;;;;10357797;28;20038;-81
2023/05/28 02:45:52;;;;;;;6.93;4.27;;;;;;;;;;10344273;28;20046;-80
2023/05/28 02:50:53;;;;;;;7.17;3.00;;;;;;;;;;10344047;28;20036;-80
2023/05/28 02:55:54;;;;;;;12.13;3.30;;;;;;;;;;10356936;28;20026;-79
2023/05/28 03:00:55;;;;;;;7.17;3.73;;;;;;;;;;10351540;28;20494;-79
2023/05/28 03:05:57;;;;;;;7.33;3.37;;;;;;;;;;10369651;28;20037;-79
2023/05/28 03:10:58;;;;;;;9.03;3.60;;;;;;;;;;10344178;28;20679;-79
2023/05/28 03:15:59;;;;;;;5.97;3.40;;;;;;;;;;10355728;28;20033;-83
2023/05/28 03:21:00;;;;;;;6.97;3.27;;;;;;;;;;10361711;28;20038;-80
2023/05/28 03:26:01;;;;;;;7.00;3.20;;;;;;;;;;10359107;28;20033;-79
2023/05/28 03:31:03;;;;;;;6.10;3.27;;;;;;;;;;10352920;28;20046;-80
2023/05/28 03:36:06;;;;;;;8.00;3.37;;;;;;;;;;10354459;28;20038;-81
2023/05/28 03:41:07;;;;;;;7.97;3.30;;;;;;;;;;10368274;28;20044;-79
2023/05/28 03:46:08;;;;;;;7.63;3.57;;;;;;;;;;10347332;28;20400;-82
2023/05/28 03:51:09;;;;;;;5.90;3.17;;;;;;;;;;10351004;28;20032;-79
2023/05/28 03:56:10;;;;;;;8.23;3.50;;;;;;;;;;10357582;28;20043;-79
2023/05/28 04:01:12;;;;;;;7.57;3.73;;;;;;;;;;10345855;28;20046;-78
2023/05/28 04:06:14;;;;;;;7.13;3.10;;;;;;;;;;10362099;28;20034;-81
2023/05/28 04:11:15;;;;;;;7.10;3.00;;;;;;;;;;10342037;28;20030;-79
2023/05/28 04:16:16;;;;;;;7.10;3.40;;;;;;;;;;10341767;28;20700;-84
2023/05/28 04:21:17;;;;;;;8.60;4.00;;;;;;;;;;10362911;28;20396;-82
2023/05/28 04:26:20;;;;;;;6.70;2.97;;;;;;;;;;10340121;28;20100;-81
2023/05/28 04:31:21;;;;;;;10.43;3.47;;;;;;;;;;10366727;28;20063;-83
2023/05/28 04:36:28;;;;;;;6.80;2.80;;;;;;;;;;10338010;28;20030;-83
2023/05/28 04:41:30;;;;;;;6.03;2.90;;;;;;;;;;10355492;28;20034;-79
2023/05/28 04:46:33;;;;;;;6.67;3.53;;;;;;;;;;10376488;28;20026;-80
2023/05/28 04:51:36;;;;;;;6.83;3.30;;;;;;;;;;10354587;28;20065;-80
2023/05/28 04:56:37;;;;;;;8.10;3.20;;;;;;;;;;10355835;28;20049;-80
2023/05/28 05:01:41;;;;;;;5.47;2.80;;;;;;;;;;10355125;28;20088;-80
2023/05/28 05:06:42;;;;;;;5.63;2.80;;;;;;;;;;10422149;28;20032;-84
2023/05/28 05:11:43;;;;;;;6.03;2.90;;;;;;;;;;10352711;28;20656;-80
2023/05/28 05:16:45;;;;;;;4.35;2.28;;;;;;;;;;10360480;28;20075;-80
2023/05/28 05:21:46;;;;;;;5.32;2.67;;;;;;;;;;10361523;28;20063;-81
2023/05/28 05:26:47;;;;;;;7.38;2.50;;;;;;;;;;10361179;28;20495;-80
2023/05/28 05:31:48;;;;;;;6.25;2.85;;;;;;;;;;10349599;28;20182;-84
2023/05/28 05:36:49;;;;;;;5.07;2.42;;;;;;;;;;10431733;28;20030;-81
2023/05/28 05:41:51;;;;;;;3.40;2.10;;;;;;;;;;10362129;28;20451;-83
2023/05/28 05:46:52;;;;;;;4.65;2.00;;;;;;;;;;10361992;28;20083;-80
2023/05/28 05:51:53;;;;;;;9.43;2.72;;;;;;;;;;10362654;28;20044;-80
2023/05/28 05:56:54;;;;;;;5.00;2.25;;;;;;;;;;10361625;28;20046;-81
2023/05/28 06:01:55;;;;;;;4.97;1.95;;;;;;;;;;10379455;28;20045;-78
2023/05/28 06:06:56;;;;;;;6.20;2.25;;;;;;;;;;10368533;28;20065;-81
2023/05/28 06:11:57;;;;;;;4.03;1.80;;;;;;;;;;10346348;28;20038;-85
2023/05/28 06:16:58;;;;;;;4.35;2.03;;;;;;;;;;10360745;28;20079;-81
2023/05/28 06:21:59;;;;;;;3.53;1.90;;;;;;;;;;10368946;28;20098;-80
2023/05/28 06:27:00;;;;;;;6.28;2.35;;;;;;;;;;10351372;28;20078;-80
2023/05/28 06:32:01;;;;;;;6.47;2.60;;;;;;;;;;10371385;28;20056;-81
2023/05/28 06:37:02;;;;;;;8.18;2.30;;;;;;;;;;10354739;28;20378;-82
2023/05/28 06:42:03;;;;;;;6.03;2.03;;;;;;;;;;10355287;28;20056;-80
2023/05/28 06:47:04;;;;;;;5.40;2.22;;;;;;;;;;10340603;28;20034;-80
2023/05/28 06:52:05;;;;;;;8.40;2.50;;;;;;;;;;10358420;28;20022;-79
2023/05/28 06:57:07;;;;;;;10.23;2.92;;;;;;;;;;10349000;28;20030;-81
2023/05/28 07:02:08;;;;;;;7.68;3.53;;;;;;;;;;10345231;28;20038;-81
2023/05/28 07:07:09;;;;;;;8.57;3.90;;;;;;;;;;10351800;28;20033;-82
2023/05/28 07:12:10;;;;;;;9.30;4.47;;;;;;;;;;10354425;28;20029;-80
2023/05/28 07:17:11;;;;;;;13.38;4.78;;;;;;;;;;10352351;28;20622;-81
2023/05/28 07:22:12;;;;;;;12.80;4.32;;;;;;;;;;10360194;28;20481;-83
2023/05/28 07:27:13;;;;;;;10.55;4.97;;;;;;;;;;10367333;28;20044;-81
2023/05/28 07:32:15;;;;;;;11.43;6.28;;;;;;;;;;10346813;28;20066;-80
2023/05/28 07:37:16;;;;;;;10.23;5.78;;;;;;;;;;10350896;28;20030;-82
2023/05/28 07:42:17;;;;;;;11.23;4.70;;;;;;;;;;10366052;28;20052;-80
2023/05/28 07:47:18;;;;;;;10.57;4.28;;;;;;;;;;10359512;28;20056;-81
2023/05/28 07:52:19;;;;;;;4.53;2.53;;;;;;;;;;10362476;28;20034;-80
2023/05/28 07:57:20;;;;;;;4.25;2.00;;;;;;;;;;10348619;28;20026;-81
2023/05/28 08:02:21;;;;;;;4.72;1.58;;;;;;;;;;10358737;28;20046;-81
2023/05/28 08:07:22;;;;;;;5.13;2.00;;;;;;;;;;10353774;28;20030;-80
2023/05/28 08:12:23;;;;;;;4.32;2.05;;;;;;;;;;10345682;28;20485;-83
2023/05/28 08:17:24;;;;;;;6.28;2.85;;;;;;;;;;10335643;28;20119;-81
2023/05/28 08:22:25;;;;;;;5.45;1.95;;;;;;;;;;10357137;28;20041;-82
2023/05/28 08:27:26;;;;;;;6.20;3.17;;;;;;;;;;10349854;28;20042;-79
2023/05/28 08:32:27;;;;;;;7.28;2.70;;;;;;;;;;10337234;28;20048;-79
2023/05/28 08:37:29;;;;;;;6.75;2.25;;;;;;;;;;10355260;28;20034;-80
2023/05/28 08:42:30;;;;;;;4.55;2.30;;;;;;;;;;10349576;28;20052;-80
2023/05/28 08:47:32;;;;;;;5.20;1.92;;;;;;;;;;10352185;28;20038;-80
2023/05/28 08:52:34;;;;;;;5.57;1.50;;;;;;;;;;10357900;28;20026;-80
2023/05/28 08:57:35;;;;;;;6.55;1.65;;;;;;;;;;10360182;28;20033;-80
2023/05/28 09:02:36;;;;;;;6.55;2.90;;;;;;;;;;10341440;28;20042;-82
2023/05/28 09:07:37;;;;;;;16.75;6.65;;;;;;;;;;10337693;28;20505;-83
2023/05/28 09:12:41;;;;;;;7.65;3.88;;;;;;;;;;10342801;28;20109;-79
2023/05/28 09:17:42;;;;;;;4.53;1.95;;;;;;;;;;10342983;28;20034;-80
2023/05/28 09:22:46;;;;;;;6.55;3.53;;;;;;;;;;10386083;28;20039;-80
2023/05/28 09:27:48;;;;;;;4.63;2.45;;;;;;;;;;10341329;28;20107;-81
2023/05/28 09:32:57;;;;;;;6.35;2.40;;;;;;;;;;10326538;28;20114;-81
2023/05/28 09:38:01;;;;;;;10.05;2.30;;;;;;;;;;10338251;28;20030;-83
2023/05/28 09:43:04;;;;;;;3.97;1.85;;;;;;;;;;10324872;28;20047;-81
2023/05/28 09:48:05;;;;;;;5.53;2.17;;;;;;;;;;10397295;28;20030;-79
2023/05/28 09:53:07;;;;;;;4.20;1.70;;;;;;;;;;10341385;28;20035;-82
2023/05/28 09:58:09;;;;;;;3.25;1.80;;;;;;;;;;10345452;28;20034;-79
2023/05/28 10:03:17;;;;;;;7.55;3.00;;;;;;;;;;10343927;28;20038;-80
2023/05/28 10:08:19;;;;;;;6.68;2.22;;;;;;;;;;10360442;28;20062;-80
2023/05/28 10:13:22;;;;;;;5.18;2.03;;;;;;;;;;10356450;28;20046;-83
2023/05/28 10:18:23;;;;;;;6.45;2.50;;;;;;;;;;10335665;28;20033;-85
2023/05/28 10:23:24;;;;;;;2.60;1.80;;;;;;;;;;10336078;28;20378;-80
2023/05/28 10:28:25;;;;;;;7.78;2.50;;;;;;;;;;10349912;28;20030;-80
2023/05/28 10:33:26;;;;;;;7.22;2.83;;;;;;;;;;10360301;28;20061;-80
2023/05/28 10:38:28;;;;;;;4.75;1.73;;;;;;;;;;10366852;28;20042;-81
2023/05/28 10:43:38;;;;;;;5.05;1.90;;;;;;;;;;10347715;28;20113;-81
2023/05/28 10:48:42;;;;;;;4.32;2.08;;;;;;;;;;10328768;28;20030;-84
2023/05/28 10:53:47;;;;;;;5.63;2.23;;;;;;;;;;10360066;28;20042;-81
2023/05/28 10:58:48;;;;;;;4.32;1.60;;;;;;;;;;10358225;28;20038;-85
2023/05/28 11:03:54;;;;;;;5.80;2.08;;;;;;;;;;10370529;28;20034;-85
2023/05/28 11:08:59;;;;;;;6.15;2.15;;;;;;;;;;10348621;28;20073;-85
2023/05/28 11:14:18;;;;;;;4.30;1.80;;;;;;;;;;10341226;28;20069;-85
2023/05/28 11:19:19;;;;;;;4.50;2.60;;;;;;;;;;10360581;28;20045;-85
2023/05/28 11:24:20;;;;;;;6.00;1.80;;;;;;;;;;10352790;28;20167;-86
2023/05/28 11:35:30;;;;;;;;;;;;;;;;;;;;;
2023/05/28 11:40:35;;;;;;;6.55;2.10;;;;;;;;;;10594839;27;20566;-85
2023/05/28 11:45:37;;;;;;;3.90;1.73;;;;;;;;;;10576552;27;20390;-89
2023/05/28 11:50:38;;;;;;;6.63;2.10;;;;;;;;;;10599561;27;20628;-86
2023/05/28 11:55:39;;;;;;;3.03;1.80;;;;;;;;;;10602579;27;20053;-84
2023/05/28 12:00:40;;;;;;;4.50;2.05;;;;;;;;;;10591013;27;20065;-87
2023/05/28 12:05:42;;;;;;;4.75;2.03;;;;;;;;;;10576729;27;20035;-86
2023/05/28 12:10:43;;;;;;;3.53;2.00;;;;;;;;;;10550943;27;20035;-86
2023/05/28 12:15:44;;;;;;;4.03;1.60;;;;;;;;;;10578708;27;20035;-86
2023/05/28 12:20:45;;;;;;;5.28;1.88;;;;;;;;;;10604812;27;20105;-86
2023/05/28 12:25:47;;;;;;;4.25;1.60;;;;;;;;;;10604146;27;20034;-85
2023/05/28 12:30:55;;;;;;;6.35;1.83;;;;;;;;;;10609000;27;20124;-85
2023/05/28 12:35:56;;;;;;;6.35;2.17;;;;;;;;;;10605854;27;20029;-85
2023/05/28 12:40:58;;;;;;;7.80;2.97;;;;;;;;;;10600503;27;20054;-85
2023/05/28 12:46:00;;;;;;;6.93;2.20;;;;;;;;;;10588390;27;20023;-86
2023/05/28 12:51:01;;;;;;;4.30;1.88;;;;;;;;;;10611555;27;20046;-85
2023/05/28 12:56:02;;;;;;;6.03;1.35;;;;;;;;;;10571517;27;20068;-89
2023/05/28 13:01:03;;;;;;;6.47;1.70;;;;;;;;;;10586361;27;20023;-86
2023/05/28 13:06:05;;;;;;;1.48;1.30;;;;;;;;;;10596906;27;20196;-87
2023/05/28 13:11:06;;;;;;;3.60;1.40;;;;;;;;;;10598544;28;20051;-86
2023/05/28 13:16:07;;;;;;;3.38;1.40;;;;;;;;;;10577836;27;20037;-86
2023/05/28 13:21:08;;;;;;;3.85;1.50;;;;;;;;;;10608458;27;20020;-83
2023/05/28 13:26:09;;;;;;;4.88;1.52;;;;;;;;;;10596396;27;20031;-84
2023/05/28 13:31:10;;;;;;;4.38;1.73;;;;;;;;;;10605162;27;20039;-86
2023/05/28 13:36:12;;;;;;;2.53;1.77;;;;;;;;;;10595938;27;20031;-87
2023/05/28 13:41:13;;;;;;;4.00;1.95;;;;;;;;;;10616679;27;20474;-88
2023/05/28 13:46:16;;;;;;;2.13;1.25;;;;;;;;;;10602447;27;20816;-88
2023/05/28 13:51:17;;;;;;;2.97;1.48;;;;;;;;;;10606553;27;20031;-90
2023/05/28 13:56:18;;;;;;;2.42;1.38;;;;;;;;;;10583316;27;20634;-89
2023/05/28 14:01:20;;;;;;;3.47;1.80;;;;;;;;;;10611891;27;20553;-89
2023/05/28 14:06:21;;;;;;;6.57;1.80;;;;;;;;;;10599768;27;20531;-89
2023/05/28 14:11:22;;;;;;;4.55;1.65;;;;;;;;;;10620684;27;20023;-89
2023/05/28 14:16:23;;;;;;;4.30;1.70;;;;;;;;;;10594290;27;20616;-89
2023/05/28 14:21:24;;;;;;;3.28;1.70;;;;;;;;;;10595115;27;20038;-88
2023/05/28 14:26:25;;;;;;;4.10;1.55;;;;;;;;;;10613231;27;20561;-88
2023/05/28 14:31:27;;;;;;;4.22;1.85;;;;;;;;;;10597457;27;20382;-88
2023/05/28 14:36:28;;;;;;;3.40;1.70;;;;;;;;;;10597898;27;20023;-89
2023/05/28 14:41:29;;;;;;;2.78;1.55;;;;;;;;;;10592754;27;20035;-89
2023/05/28 14:46:30;;;;;;;2.22;1.30;;;;;;;;;;10616747;27;20422;-88
2023/05/28 14:51:31;;;;;;;6.18;2.28;;;;;;;;;;10605298;27;20035;-89
2023/05/28 14:56:32;;;;;;;2.65;1.58;;;;;;;;;;10545755;27;20034;-88
2023/05/28 15:01:33;;;;;;;3.22;1.73;;;;;;;;;;10614588;27;20552;-88
2023/05/28 15:06:35;;;;;;;2.58;1.95;;;;;;;;;;10597377;27;20023;-89
2023/05/28 15:11:36;;;;;;;2.50;1.63;;;;;;;;;;10593062;27;20035;-80
2023/05/28 15:16:37;;;;;;;3.70;1.60;;;;;;;;;;10599127;27;20039;-81
2023/05/28 15:21:38;;;;;;;2.42;1.50;;;;;;;;;;10605400;27;20453;-83
2023/05/28 15:26:39;;;;;;;5.88;2.00;;;;;;;;;;10615281;27;20080;-85
2023/05/28 15:31:41;;;;;;;3.10;2.22;;;;;;;;;;10617136;27;20108;-81
2023/05/28 15:36:42;;;;;;;2.45;1.50;;;;;;;;;;10623232;27;20116;-80
2023/05/28 15:41:44;;;;;;;3.40;1.70;;;;;;;;;;10601164;27;20023;-84
2023/05/28 15:46:45;;;;;;;4.43;1.73;;;;;;;;;;10604956;27;20023;-84
2023/05/28 15:51:46;;;;;;;3.25;1.65;;;;;;;;;;10602255;27;20035;-81
2023/05/28 15:56:48;;;;;;;4.32;1.70;;;;;;;;;;10613763;27;20042;-83
2023/05/28 16:01:53;;;;;;;4.00;1.75;;;;;;;;;;10598271;27;20106;-81
2023/05/28 16:06:54;;;;;;;5.40;1.67;;;;;;;;;;10617990;27;20031;-80
2023/05/28 16:11:56;;;;;;;3.72;1.63;;;;;;;;;;10610076;27;20060;-81
2023/05/28 16:16:57;;;;;;;4.43;1.52;;;;;;;;;;10603811;27;20187;-83
2023/05/28 16:21:58;;;;;;;3.53;1.33;;;;;;;;;;10601007;27;20034;-81
2023/05/28 16:27:00;;;;;;;3.83;1.70;;;;;;;;;;10616337;27;20031;-82
2023/05/28 16:32:01;;;;;;;3.88;1.83;;;;;;;;;;10618054;27;20055;-81
2023/05/28 16:37:09;;;;;;;3.60;2.03;;;;;;;;;;10613032;27;20026;-82
2023/05/28 16:42:10;;;;;;;3.08;2.08;;;;;;;;;;10609668;27;20314;-81
2023/05/28 16:47:12;;;;;;;4.70;1.88;;;;;;;;;;10616006;27;20537;-85
2023/05/28 16:52:14;;;;;;;6.25;1.73;;;;;;;;;;10606124;27;20511;-82
2023/05/28 16:57:19;;;;;;;2.75;1.70;;;;;;;;;;10601882;27;20368;-84
2023/05/28 17:02:20;;;;;;;3.63;1.70;;;;;;;;;;10607778;27;20030;-84
2023/05/28 17:07:21;;;;;;;4.60;1.65;;;;;;;;;;10602311;27;20023;-82
2023/05/28 17:12:22;;;;;;;4.85;2.20;;;;;;;;;;10591868;28;20030;-84
2023/05/28 17:17:23;;;;;;;4.03;1.95;;;;;;;;;;10611076;27;20034;-81
2023/05/28 17:22:26;;;;;;;3.42;1.80;;;;;;;;;;10608545;27;20391;-81
2023/05/28 17:27:27;;;;;;;4.57;1.90;;;;;;;;;;10615544;27;20031;-82
2023/05/28 17:32:28;;;;;;;3.47;1.98;;;;;;;;;;10601875;27;20077;-81
2023/05/28 17:37:29;;;;;;;2.85;1.90;;;;;;;;;;10597763;27;20020;-84
2023/05/28 17:42:30;;;;;;;2.78;1.70;;;;;;;;;;10596317;27;20675;-80
2023/05/28 17:47:31;;;;;;;3.40;1.67;;;;;;;;;;10620818;27;20072;-81
2023/05/28 17:52:32;;;;;;;4.88;1.83;;;;;;;;;;10608568;27;20039;-81
2023/05/28 17:57:33;;;;;;;6.85;2.22;;;;;;;;;;10608323;27;20424;-81
2023/05/28 18:02:35;;;;;;;3.70;2.20;;;;;;;;;;10611974;27;20031;-84
2023/05/28 18:07:36;;;;;;;3.40;1.65;;;;;;;;;;10618443;27;20129;-80
2023/05/28 18:12:37;;;;;;;2.30;1.73;;;;;;;;;;10606459;28;20039;-81
2023/05/28 18:17:39;;;;;;;3.20;1.85;;;;;;;;;;10600623;27;20031;-82
2023/05/28 18:22:40;;;;;;;4.18;2.10;;;;;;;;;;10622923;27;20030;-81
2023/05/28 18:27:41;;;;;;;2.42;1.65;;;;;;;;;;10604586;27;20035;-80
2023/05/28 18:32:42;;;;;;;4.05;1.85;;;;;;;;;;10627329;27;20663;-82
2023/05/28 18:37:43;;;;;;;4.00;2.08;;;;;;;;;;10624332;27;20030;-80
2023/05/28 18:42:44;;;;;;;3.13;1.45;;;;;;;;;;10613473;27;20394;-80
2023/05/28 18:47:45;;;;;;;5.03;2.05;;;;;;;;;;10622514;27;20025;-81
2023/05/28 18:52:46;;;;;;;2.85;2.00;;;;;;;;;;10591179;27;20059;-82
2023/05/28 18:57:47;;;;;;;5.00;2.10;;;;;;;;;;10623661;27;20771;-83
2023/05/28 19:02:48;;;;;;;4.32;1.92;;;;;;;;;;10625668;27;20035;-81
2023/05/28 19:07:49;;;;;;;3.90;2.17;;;;;;;;;;10617492;27;20035;-81
2023/05/28 19:12:50;;;;;;;7.80;2.65;;;;;;;;;;10615681;27;20504;-79
2023/05/28 19:17:51;;;;;;;5.25;3.17;;;;;;;;;;10627802;27;20038;-80
2023/05/28 19:22:52;;;;;;;6.60;3.60;;;;;;;;;;10630339;27;20118;-82
2023/05/28 19:27:54;;;;;;;5.80;2.70;;;;;;;;;;10619831;27;20692;-80
2023/05/28 19:32:55;;;;;;;5.85;3.70;;;;;;;;;;10615254;27;20055;-79
2023/05/28 19:37:56;;;;;;;8.35;3.42;;;;;;;;;;10622038;27;20027;-80
2023/05/28 19:42:57;;;;;;;6.78;3.67;;;;;;;;;;10615815;27;20657;-80
2023/05/28 19:47:58;;;;;;;6.40;3.20;;;;;;;;;;10626866;27;20122;-80
2023/05/28 19:52:59;;;;;;;6.47;3.15;;;;;;;;;;10604238;27;20391;-80
2023/05/28 19:58:00;;;;;;;4.53;3.22;;;;;;;;;;10627887;27;20060;-80
2023/05/28 20:03:01;;;;;;;6.30;3.03;;;;;;;;;;10615040;27;20027;-80
2023/05/28 20:08:02;;;;;;;6.10;3.00;;;;;;;;;;10588582;27;20575;-80
2023/05/28 20:13:03;;;;;;;6.18;3.28;;;;;;;;;;10612475;27;20105;-80
2023/05/28 20:18:05;;;;;;;6.28;3.22;;;;;;;;;;10631099;27;20057;-82
2023/05/28 20:23:09;;;;;;;5.30;2.80;;;;;;;;;;10619512;27;20027;-84
2023/05/28 20:28:10;;;;;;;4.50;3.20;;;;;;;;;;10617474;27;20031;-80
2023/05/28 20:33:11;;;;;;;4.15;2.42;;;;;;;;;;10592682;27;20051;-81
2023/05/28 20:38:12;;;;;;;6.30;3.00;;;;;;;;;;10613561;27;20032;-80
2023/05/28 20:43:13;;;;;;;7.55;3.63;;;;;;;;;;10612048;27;20027;-83
2023/05/28 20:48:14;;;;;;;4.97;2.92;;;;;;;;;;10626731;27;20495;-80
2023/05/28 20:53:15;;;;;;;7.60;3.10;;;;;;;;;;10614681;27;20046;-80
2023/05/28 20:58:16;;;;;;;4.43;2.67;;;;;;;;;;10628970;27;20035;-80
2023/05/28 21:03:17;;;;;;;6.78;3.22;;;;;;;;;;10600846;27;20083;-81
2023/05/28 21:08:18;;;;;;;6.05;3.67;;;;;;;;;;10623382;27;20118;-81
2023/05/28 21:13:21;;;;;;;8.20;3.50;;;;;;;;;;10614825;27;20031;-81
2023/05/28 21:18:22;;;;;;;5.25;2.83;;;;;;;;;;10618574;27;20107;-79
2023/05/28 21:23:23;;;;;;;7.63;3.63;;;;;;;;;;10624855;27;20037;-80
2023/05/28 21:28:24;;;;;;;4.82;2.80;;;;;;;;;;10590152;27;20273;-80
2023/05/28 21:33:25;;;;;;;13.25;3.80;;;;;;;;;;10604785;27;20051;-80
2023/05/28 21:38:26;;;;;;;4.53;2.92;;;;;;;;;;10621555;27;20035;-83
2023/05/28 21:43:27;;;;;;;6.43;3.05;;;;;;;;;;10607629;27;20046;-80
2023/05/28 21:48:28;;;;;;;4.25;2.72;;;;;;;;;;10637626;27;20027;-80
2023/05/28 21:53:29;;;;;;;6.28;3.17;;;;;;;;;;10643595;27;20506;-80
2023/05/28 21:58:30;;;;;;;8.00;3.72;;;;;;;;;;10626777;27;20057;-80
2023/05/28 22:03:31;;;;;;;6.75;3.45;;;;;;;;;;10628786;27;20027;-80
2023/05/28 22:08:32;;;;;;;5.25;3.60;;;;;;;;;;10627160;27;20039;-80
2023/05/28 22:13:33;;;;;;;9.07;3.85;;;;;;;;;;10610358;27;20080;-80
2023/05/28 22:18:35;;;;;;;7.25;3.70;;;;;;;;;;10621425;27;20039;-82
2023/05/28 22:23:36;;;;;;;8.00;3.55;;;;;;;;;;10626589;27;20031;-79
2023/05/28 22:28:37;;;;;;;7.07;3.45;;;;;;;;;;10604399;27;20486;-78
2023/05/28 22:33:38;;;;;;;8.80;4.18;;;;;;;;;;10617243;27;20134;-79
2023/05/28 22:38:39;;;;;;;8.85;4.45;;;;;;;;;;10638425;27;20470;-79
2023/05/28 22:43:40;;;;;;;9.38;4.53;;;;;;;;;;10616155;27;20027;-79
2023/05/28 22:48:41;;;;;;;9.80;3.90;;;;;;;;;;10617735;27;20045;-81
2023/05/28 22:53:44;;;;;;;7.40;4.50;;;;;;;;;;10633552;27;20042;-78
2023/05/28 22:58:45;;;;;;;7.25;4.13;;;;;;;;;;10616946;27;20068;-79
2023/05/28 23:03:46;;;;;;;8.15;4.38;;;;;;;;;;10623775;27;20038;-79
2023/05/28 23:08:47;;;;;;;9.13;3.90;;;;;;;;;;10613199;27;20047;-79
2023/05/28 23:13:48;;;;;;;7.53;3.80;;;;;;;;;;10616491;27;20035;-78
2023/05/28 23:18:49;;;;;;;9.60;3.90;;;;;;;;;;10613498;27;20439;-80
2023/05/28 23:23:51;;;;;;;7.60;4.55;;;;;;;;;;10615723;27;20838;-79
2023/05/28 23:28:52;;;;;;;9.80;4.88;;;;;;;;;;10622677;27;20984;-79
2023/05/28 23:33:53;;;;;;;9.68;5.15;;;;;;;;;;10609124;27;20054;-78
2023/05/28 23:38:58;;;;;;;10.15;4.38;;;;;;;;;;10628099;27;20547;-79
2023/05/28 23:43:59;;;;;;;8.60;4.35;;;;;;;;;;10616338;27;20035;-79
2023/05/28 23:49:01;;;;;;;6.75;4.28;;;;;;;;;;10634449;27;20546;-80
2023/05/28 23:54:02;;;;;;;6.80;3.92;;;;;;;;;;10630167;27;20091;-79
2023/05/28 23:59:03;;;;;;;8.52;4.28;;;;;;;;;;10613334;27;20027;-79
